Continental Highway — H9LY — position and weather

sailwx.info

Track history (hours):
 
Tides and Currents Weather Stations Pressure Air Temp Water Temp Dewpoint Dewpoint Depression Visibility Wind Speed Wind Dir Waves Ship Positions

Continental Highway

Last reported at 2016-May-09 05:29 UTC. Time now 2016-May-30 05:01 UTC.
Position N 30°05' W 080°11'.
Warning: this ship's position is 20 days out of date.

Length 199.9 m; beam 32.2 m.

Type: Cargo ship. MMSI: 351223000.

Date/timePositionNaut miles runAvg speedWind from/ knotsBaromVisibWave heightAir tempDewpointWater temp
2016-May-09 05:29N 30°05' W 080°11'1415.1
2016-May-09 04:33N 30°18' W 080°18'1615.6
2016-May-09 03:33N 30°31' W 080°27'1515.5
2016-May-09 02:33N 30°43' W 080°39'1514.9
2016-May-09 01:34N 30°54' W 080°51'1514.9
2016-May-09 00:34N 30°59' W 081°07'1111.0
2016-May-08 23:34N 31°05' W 081°18'1010.1
2016-May-08 22:33N 31°07' W 081°29'3 1.2
2016-May-08 20:21N 31°08' W 081°32'0 0.0
2016-May-08 19:27N 31°08' W 081°32'0 0.0
2016-May-08 17:27N 31°08' W 081°32'1 1.0
2016-May-08 16:33N 31°08' W 081°31'7 7.5
2016-May-08 15:33N 31°07' W 081°23'6011.4
2016-May-08 10:17N 31°33' W 080°19'1815.6
2016-May-08 09:08N 31°47' W 080°07'1015.6
2016-May-08 08:30N 31°56' W 080°01'3812.6
2016-May-08 05:30N 32°28' W 079°37'25 1.5
2016-May-07 12:33N 32°48' W 079°55'9 9.3
2016-May-07 11:33N 32°42' W 079°46'1010.1
2016-May-07 10:33N 32°36' W 079°36'  
2016-May-04 17:33N 18°36' W 066°09'1010.2
2016-May-04 16:33N 18°26' W 066°05'0 0.1
2016-May-04 15:22N 18°26' W 066°05'0 0.0
2016-May-04 14:28N 18°26' W 066°05'0 0.0
2016-May-04 13:28N 18°26' W 066°05'0 0.0
2016-May-04 12:19N 18°26' W 066°05'0 0.0
2016-May-04 11:25N 18°26' W 066°05'0 0.0
2016-May-04 10:25N 18°26' W 066°05'1 0.9
2016-May-04 09:33N 18°27' W 066°06'10 9.5
2016-May-04 08:33N 18°36' W 066°09'  
2016-May-01 05:32N 39°22' W 072°32'1817.1
2016-May-01 04:31N 39°35' W 072°48'1718.1
2016-May-01 03:33N 39°47' W 073°03'1716.5
2016-May-01 02:33N 39°59' W 073°18'1717.3
2016-May-01 01:33N 40°12' W 073°33'1111.3
2016-May-01 00:34N 40°21' W 073°42'9 9.4
2016-Apr-30 23:34N 40°28' W 073°50'1010.2
2016-Apr-30 22:34N 40°33' W 074°02'8 7.6
2016-Apr-30 21:34N 40°39' W 074°09'3 2.9
2016-Apr-30 20:32N 40°41' W 074°08'0 0.0
2016-Apr-30 19:32N 40°41' W 074°08'0 0.0
2016-Apr-30 18:26N 40°41' W 074°08'0 0.0
2016-Apr-30 17:29N 40°41' W 074°08'0 0.0
2016-Apr-30 16:32N 40°41' W 074°08'0 0.0
2016-Apr-30 15:32N 40°41' W 074°08'0 0.0
2016-Apr-30 14:32N 40°41' W 074°08'0 0.0
2016-Apr-30 13:32N 40°41' W 074°08'0 0.0
2016-Apr-30 12:23N 40°41' W 074°08'0 0.0
2016-Apr-30 11:32N 40°41' W 074°08'0 0.0
2016-Apr-30 10:32N 40°41' W 074°08'0 0.0
2016-Apr-30 09:29N 40°41' W 074°08'0 0.0
2016-Apr-30 08:32N 40°41' W 074°08'0 0.0
2016-Apr-30 07:32N 40°41' W 074°08'0 0.0
2016-Apr-30 06:32N 40°41' W 074°08'0 0.0
2016-Apr-30 05:32N 40°41' W 074°08'0 0.0
2016-Apr-30 04:32N 40°41' W 074°08'0 0.0
2016-Apr-30 03:32N 40°41' W 074°08'0 0.0
2016-Apr-30 02:32N 40°41' W 074°08'1 1.0
2016-Apr-30 01:33N 40°40' W 074°08'5 5.2
2016-Apr-30 00:33N 40°37' W 074°03'9 9.1
2016-Apr-29 23:33N 40°30' W 073°56'8 8.0
2016-Apr-29 22:33N 40°25' W 073°48'1510.3
2016-Apr-29 21:04N 40°10' W 073°44'1711.3
2016-Apr-29 19:33N 39°53' W 073°41'1614.6
2016-Apr-29 18:29N 39°37' W 073°42'  
Track history (hours):
 
Tides and Currents Weather Stations Pressure Air Temp Water Temp Dewpoint Dewpoint Depression Visibility Wind Speed Wind Dir Waves Ship Positions

Continental Highway

Last reported at 2016-May-09 05:29 UTC. Time now 2016-May-30 05:01 UTC.
Position N 30°05' W 080°11'.
Warning: this ship's position is 20 days out of date.

Length 199.9 m; beam 32.2 m.

Type: Cargo ship. MMSI: 351223000.

Date/timePositionNaut miles runAvg speedWind from/ knotsBaromVisibWave heightAir tempDewpointWater temp
2016-May-09 05:29N 30°05' W 080°11'1415.1
2016-May-09 04:33N 30°18' W 080°18'1615.6
2016-May-09 03:33N 30°31' W 080°27'1515.5
2016-May-09 02:33N 30°43' W 080°39'1514.9
2016-May-09 01:34N 30°54' W 080°51'1514.9
2016-May-09 00:34N 30°59' W 081°07'1111.0
2016-May-08 23:34N 31°05' W 081°18'1010.1
2016-May-08 22:33N 31°07' W 081°29'3 1.2
2016-May-08 20:21N 31°08' W 081°32'0 0.0
2016-May-08 19:27N 31°08' W 081°32'0 0.0
2016-May-08 17:27N 31°08' W 081°32'1 1.0
2016-May-08 16:33N 31°08' W 081°31'7 7.5
2016-May-08 15:33N 31°07' W 081°23'6011.4
2016-May-08 10:17N 31°33' W 080°19'1815.6
2016-May-08 09:08N 31°47' W 080°07'1015.6
2016-May-08 08:30N 31°56' W 080°01'3812.6
2016-May-08 05:30N 32°28' W 079°37'25 1.5
2016-May-07 12:33N 32°48' W 079°55'9 9.3
2016-May-07 11:33N 32°42' W 079°46'1010.1
2016-May-07 10:33N 32°36' W 079°36'  
2016-May-04 17:33N 18°36' W 066°09'1010.2
2016-May-04 16:33N 18°26' W 066°05'0 0.1
2016-May-04 15:22N 18°26' W 066°05'0 0.0
2016-May-04 14:28N 18°26' W 066°05'0 0.0
2016-May-04 13:28N 18°26' W 066°05'0 0.0
2016-May-04 12:19N 18°26' W 066°05'0 0.0
2016-May-04 11:25N 18°26' W 066°05'0 0.0
2016-May-04 10:25N 18°26' W 066°05'1 0.9
2016-May-04 09:33N 18°27' W 066°06'10 9.5
2016-May-04 08:33N 18°36' W 066°09'  
2016-May-01 05:32N 39°22' W 072°32'1817.1
2016-May-01 04:31N 39°35' W 072°48'1718.1
2016-May-01 03:33N 39°47' W 073°03'1716.5
2016-May-01 02:33N 39°59' W 073°18'1717.3
2016-May-01 01:33N 40°12' W 073°33'1111.3
2016-May-01 00:34N 40°21' W 073°42'9 9.4
2016-Apr-30 23:34N 40°28' W 073°50'1010.2
2016-Apr-30 22:34N 40°33' W 074°02'8 7.6
2016-Apr-30 21:34N 40°39' W 074°09'3 2.9
2016-Apr-30 20:32N 40°41' W 074°08'0 0.0
2016-Apr-30 19:32N 40°41' W 074°08'0 0.0
2016-Apr-30 18:26N 40°41' W 074°08'0 0.0
2016-Apr-30 17:29N 40°41' W 074°08'0 0.0
2016-Apr-30 16:32N 40°41' W 074°08'0 0.0
2016-Apr-30 15:32N 40°41' W 074°08'0 0.0
2016-Apr-30 14:32N 40°41' W 074°08'0 0.0
2016-Apr-30 13:32N 40°41' W 074°08'0 0.0
2016-Apr-30 12:23N 40°41' W 074°08'0 0.0
2016-Apr-30 11:32N 40°41' W 074°08'0 0.0
2016-Apr-30 10:32N 40°41' W 074°08'0 0.0
2016-Apr-30 09:29N 40°41' W 074°08'0 0.0
2016-Apr-30 08:32N 40°41' W 074°08'0 0.0
2016-Apr-30 07:32N 40°41' W 074°08'0 0.0
2016-Apr-30 06:32N 40°41' W 074°08'0 0.0
2016-Apr-30 05:32N 40°41' W 074°08'0 0.0
2016-Apr-30 04:32N 40°41' W 074°08'0 0.0
2016-Apr-30 03:32N 40°41' W 074°08'0 0.0
2016-Apr-30 02:32N 40°41' W 074°08'1 1.0
2016-Apr-30 01:33N 40°40' W 074°08'5 5.2
2016-Apr-30 00:33N 40°37' W 074°03'9 9.1
2016-Apr-29 23:33N 40°30' W 073°56'8 8.0
2016-Apr-29 22:33N 40°25' W 073°48'1510.3
2016-Apr-29 21:04N 40°10' W 073°44'1711.3
2016-Apr-29 19:33N 39°53' W 073°41'1614.6
2016-Apr-29 18:29N 39°37' W 073°42'  

Dump ship's entire track history